Flight Track Log - Related Links

Times and Time Zones

All times are in EDT time to prevent confusion due to time zone crossing. See the RPA3275 flight status page for this flight to view local times or setup timezone preferences in your user account.

Time Position Orientation Groundspeed Altitude Reporting Facility
EDT Latitude Longitude Course Direction KTS MPH feet Rate Location/Type
Fri 07:08:48 AM 42.7503 -73.8311 223° Southwest 136 157 1,500  Level Boston Center
Fri 07:10:14 AM 42.7472 -73.9244 267° West 166 191 3,900 2,096 Climbing Boston Center
Fri 07:11:00 AM 42.7333 -74.2661 270° West  Level FlightAware Approximate
Fri 07:11:14 AM 42.7478 -74.0233 270° West 224 258 6,600  Level Boston Center
Fri 07:12:00 AM 42.6927 -74.3603 220° Southwest  Level FlightAware Approximate
Fri 07:12:27 AM 42.7481 -74.1564 270° West 273 314 10,900  Level Boston Center
Fri 07:13:00 AM 42.6268 -74.4345 220° Southwest  Level FlightAware Approximate
Fri 07:13:26 AM 42.7464 -74.2522 269° West 279 321 13,400  Level Boston Center
Fri 07:14:00 AM 42.5619 -74.5102 223° Southwest  Level FlightAware Approximate
Fri 07:14:26 AM 42.7094 -74.3503 243° Southwest 267 307 16,000  Level Boston Center
Fri 07:15:26 AM 42.6478 -74.4217 220° Southwest 298 343 16,000 100 Level Boston Center
Fri 07:16:26 AM 42.5775 -74.5011 220° Southwest 317 365 16,200 100 Climbing Boston Center
Fri 07:17:26 AM 42.5158 -74.5753 222° Southwest 322 371 16,200  Level Boston Center
Fri 07:18:26 AM 42.4347 -74.6681 220° Southwest 340 391 16,200  Level Boston Center
Fri 07:20:17 AM 42.3106 -74.8058 219° Southwest 347 399 16,200  Level New York Center
Fri 07:21:15 AM 42.2392 -74.8883 221° Southwest 341 392 16,200  Level New York Center
Fri 07:22:16 AM 42.1525 -74.9808 218° Southwest 347 399 16,200  Level New York Center
Fri 07:23:16 AM 42.0733 -75.0483 212° Southwest 352 405 16,200  Level New York Center
Fri 07:24:15 AM 41.9917 -75.1156 211° Southwest 352 405 16,200  Level New York Center
Fri 07:25:15 AM 41.9081 -75.1825 211° Southwest 352 405 16,200 -2,100 Level New York Center
Fri 07:26:15 AM 41.8353 -75.2361 209° Southwest 346 398 12,000 -50 Descending New York Center
Fri 07:27:16 AM 41.7556 -75.3058 213° Southwest 346 398 16,100 2,033 Climbing New York Center
Fri 07:28:16 AM 41.6653 -75.3775 211° Southwest 353 406 16,100 -550 Level New York Center
Fri 07:29:16 AM 41.5836 -75.4411 210° Southwest 347 399 15,000 -1,388 Descending New York Center
Fri 07:30:17 AM 41.5061 -75.5050 212° Southwest 347 399 13,300 -1,438 Descending New York Center
Fri 07:31:17 AM 41.4331 -75.5636 211° Southwest 342 394 12,100 -605 Descending New York Center
Fri 07:32:16 AM 41.3450 -75.6319 210° Southwest 347 399 12,100  Level New York Center
Fri 07:33:16 AM 41.2633 -75.6922 209° Southwest 347 399 12,100  Level New York Center
Fri 07:34:18 AM 41.1697 -75.6881 178° South 335 386 12,100  Level New York Center
Fri 07:35:16 AM 41.0739 -75.6894 181° South 350 403 12,100 -51 Level New York Center
Fri 07:36:15 AM 40.9786 -75.6744 173° South 345 397 12,000 -50 Descending New York Center
Fri 07:37:16 AM 40.8950 -75.6325 159° South 350 403 12,000  Level New York Center
Fri 07:38:14 AM 40.8028 -75.5931 162° South 357 411 12,000  Level New York Center
Fri 07:39:15 AM 40.7006 -75.5450 160° South 357 411 12,000  Level New York Center
Fri 07:40:15 AM 40.6125 -75.5058 161° South 357 411 12,000 -397 Level New York Center
Fri 07:41:16 AM 40.5203 -75.4642 161° South 352 405 11,200 -934 Descending New York Center
Fri 07:42:17 AM 40.4428 -75.4261 160° South 315 362 10,100 -1,140 Descending New York Center
Fri 07:43:17 AM 40.3692 -75.3858 157° South 293 337 8,900 -1,475 Descending New York Center
Fri 07:44:15 AM 40.2981 -75.3428 155° Southeast 282 325 7,200 -1,412 Descending New York Center
Fri 07:45:16 AM 40.2369 -75.3036 154° Southeast 277 319 6,100 -545 Descending New York Center
Fri 07:46:16 AM 40.1708 -75.2314 140° Southeast 277 319 6,100 -347 Level New York Center
Fri 07:47:17 AM 40.1211 -75.1683 136° Southeast 282 325 5,400 -1,565 Descending New York Center
Fri 07:48:11 AM 40.0667 -75.1000 136° Southeast 275 316 3,100 -1,333 Descending Philadelphia TRACON
Fri 07:49:05 AM 40.0167 -75.0333 134° Southeast 274 315 3,000 -316 Descending Philadelphia TRACON
Fri 07:50:05 AM 39.9500 -75.0167 169° South 201 231 2,500 -450 Descending Philadelphia TRACON
Fri 07:51:05 AM 39.9167 -75.0500 217° Southwest 189 217 2,100 -400 Descending Philadelphia TRACON
Fri 07:52:05 AM 39.9000 -75.1167 252° West 163 188 1,700 -600 Descending Philadelphia TRACON
Fri 07:53:05 AM 39.8833 -75.1667 247° West 134 154 900 -800 Descending Philadelphia TRACON

Login

Don't have an account? Register now (free) for customized features, flight alerts, and more!